Track Игнатина Алиса

Time Latitude Longitude Accuracy (66% radius in meters) Altitude (meters) Speed (km/hour) Bearing (degrees) Battery (%) GPS flag
10:05:54 55.737897 37.299117 6 173.29480332165 0 145.75309753418 78 1 delete
10:05:42 55.737897 37.299117 4 173.56787652821 0 145.75309753418 78 1 delete
10:05:30 55.737897 37.299117 4 173.73082213356 0 145.75309753418 78 1 delete
10:05:18 55.737897 37.299117 6 173.83041683455 0 145.75309753418 78 1 delete
10:05:06 55.737897 37.299117 4 173.89746827643 0 145.75309753418 78 1 delete
10:04:57 55.737897 37.299117 4 173.99242213394 0 145.75309753418 78 1 delete
10:04:45 55.737897 37.299117 6 174.1090230053 0 145.75309753418 78 1 delete
10:04:33 55.737897 37.299117 4 174.11506524628 0 145.75309753418 78 1 delete
10:04:21 55.737897 37.299117 4 174.09501833369 0 145.75309753418 78 1 delete
10:04:09 55.737897 37.299117 6 174.03983944785 0 145.75309753418 78 1 delete
10:03:57 55.737897 37.299117 4 174.09386409692 0 145.75309753418 78 1 delete
10:03:45 55.737897 37.299117 4 174.19671956021 0 145.75309753418 78 1 delete
10:03:33 55.737897 37.299117 8 174.26129966735 0 145.75309753418 78 1 delete
10:03:21 55.737897 37.299117 4 174.18640857656 0 145.75309753418 78 1 delete
10:03:09 55.737897 37.299117 8 174.11775204464 0 145.75309753418 78 1 delete
10:03:00 55.737897 37.299117 4 174.08082693465 0 145.75309753418 78 1 delete
10:02:48 55.737897 37.299117 4 174.02472311541 0 145.75309753418 78 1 delete
10:02:36 55.737897 37.299117 8 174.00164960899 0 145.75309753418 78 1 delete
10:02:27 55.737897 37.299117 6 173.99036290543 0 145.75309753418 78 1 delete
10:02:12 55.737897 37.299117 4 173.96039106194 0 145.75309753418 78 1 delete
10:02:03 55.737897 37.299117 4 173.97132803093 0 145.75309753418 78 1 delete
10:01:51 55.737897 37.299117 4 174.00277069684 0 145.75309753418 78 1 delete
10:01:42 55.737897 37.299117 6 174.04068421414 0 145.75309753418 78 1 delete
10:01:30 55.737897 37.299117 4 174.07887660291 0 145.75309753418 78 1 delete
10:01:21 55.737897 37.299117 4 174.08499623794 0 145.75309753418 78 1 delete
10:01:12 55.737897 37.299117 4 174.10255213542 0 145.75309753418 78 1 delete
10:01:00 55.737897 37.299117 4 174.13027795439 0 145.75309753418 78 1 delete
10:00:51 55.737897 37.299117 6 174.14914471125 0 145.75309753418 78 1 delete
10:00:39 55.737897 37.299117 4 174.17868640297 0 145.75309753418 78 1 delete
10:00:27 55.737897 37.299117 4 174.18235524832 0 145.75309753418 78 1 delete
10:00:15 55.737897 37.299117 4 174.17705029306 0 145.75309753418 78 1 delete
10:00:03 55.737897 37.299117 8 174.18581205708 0 145.75309753418 78 1 delete
09:59:51 55.737897 37.299117 6 174.1816669261 0 145.75309753418 78 1 delete
09:59:39 55.737897 37.299117 6 174.17509144037 0 145.75309753418 78 1 delete
09:59:27 55.737897 37.299117 8 174.13784240296 0 145.75309753418 78 1 delete
09:59:18 55.737897 37.299117 4 174.10664459588 0 145.75309753418 78 1 delete
09:59:06 55.737897 37.299117 4 174.06086671307 0 145.75309753418 78 1 delete
09:58:54 55.737897 37.299117 8 174.10483245842 0 145.75309753418 78 1 delete
09:58:42 55.737897 37.299117 8 174.07145844482 0 145.75309753418 78 1 delete
09:58:30 55.737897 37.299117 12 174.00428765056 0 145.75309753418 78 1 delete
09:58:18 55.737897 37.299117 8 174.01918530608 0 145.75309753418 78 1 delete
09:58:06 55.737897 37.299117 12 174.12357966401 0 145.75309753418 78 1 delete
09:57:54 55.737897 37.299117 6 174.2314646437 0 145.75309753418 78 1 delete
09:57:45 55.737897 37.299117 6 174.30826926986 0 145.75309753418 78 1 delete
09:57:33 55.737897 37.299117 4 174.34752151457 0 145.75309753418 78 1 delete
09:57:21 55.737897 37.299117 6 174.36250709165 0 145.75309753418 78 1 delete
09:57:06 55.737897 37.299117 4 174.34294220683 0 145.75309753418 78 1 delete
09:56:54 55.737897 37.299117 4 174.33030216606 0 145.75309753418 78 1 delete
09:56:42 55.737897 37.299117 6 174.35199026421 0 145.75309753418 78 1 delete
09:56:30 55.737897 37.299117 4 174.37894206486 0 145.75309753418 78 1 delete